Terminal Aerodrome Forecast
Issued by NWS

Current Version | Previous Version | Text Only | Print | Product List | Glossary On
Versions: 1 2 3 4 5 6 7 8 9 10 11 12 13 14
000
FTUS45 KRIW 031700
TAFCOD
TAF
KCOD 031727Z 0318/0418 36012G18KT 3SM -SN BLSN SCT013 OVC018
     FM032000 01010KT 6SM -SN SCT025 BKN040
     FM040200 01006KT P6SM -SN BKN040
     FM040600 25005KT P6SM SCT040
     FM041700 15006KT P6SM SKC
      AMD LTD TO CLD VIS AND WIND=

USA.gov is the U.S. government's official web portal to all federal, state and local government web resources and services.